TAF MHPR
MHPR 072220Z 0800/0824 35012KT 9999 SCT042 TX28/0819Z TN20/0812Z TEMPO 0801/0806 7000 -RA BKN044=
METAR MHPR
MHPR 080300Z 02003KT 9999 BKN040 23/22 Q1023 A3020 RERA NOSIG=
MHPR 080200Z 32006KT 8000 -RA BKN040 23/21 Q1022 A3018 NOSIG=
MHPR 072300Z 36012KT 8000 VCSH BKN042 26/20 Q1019 A3009 NOSIG=
MHPR 072200Z 36018KT 8000 VCSH BKN042 27/19 Q1019 A3009 NOSIG=
MHPR 072000Z 36010KT 9999 VCSH BKN042 29/17 Q1019 A3009 NOSIG=
WC MHPR
WS MHPR
WV MHPR